sensor_id;sensor_type;location;lat;lon;timestamp;pressure;altitude;pressure_sealevel;temperature;humidity
14383;BME280;7275;50.328;8.720;2022-08-24T00:00:38;99843.06;;;25.97;31.56
14383;BME280;7275;50.328;8.720;2022-08-24T00:03:06;99844.38;;;25.93;31.58
14383;BME280;7275;50.328;8.720;2022-08-24T00:05:37;99846.53;;;25.90;31.50
14383;BME280;7275;50.328;8.720;2022-08-24T00:08:04;99836.00;;;25.87;31.78
14383;BME280;7275;50.328;8.720;2022-08-24T00:10:33;99839.03;;;25.84;32.02
14383;BME280;7275;50.328;8.720;2022-08-24T00:13:01;99846.59;;;25.80;32.00
14383;BME280;7275;50.328;8.720;2022-08-24T00:15:28;99853.00;;;25.79;32.18
14383;BME280;7275;50.328;8.720;2022-08-24T00:17:56;99854.03;;;25.78;32.01
14383;BME280;7275;50.328;8.720;2022-08-24T00:20:24;99849.00;;;25.83;32.19
14383;BME280;7275;50.328;8.720;2022-08-24T00:22:52;99849.41;;;25.88;32.21
14383;BME280;7275;50.328;8.720;2022-08-24T00:25:20;99857.94;;;25.93;32.43
14383;BME280;7275;50.328;8.720;2022-08-24T00:27:49;99854.94;;;25.96;32.29
14383;BME280;7275;50.328;8.720;2022-08-24T00:30:18;99849.06;;;26.01;32.40
14383;BME280;7275;50.328;8.720;2022-08-24T00:32:47;99851.44;;;26.04;32.16
14383;BME280;7275;50.328;8.720;2022-08-24T00:35:17;99850.19;;;26.08;32.23
14383;BME280;7275;50.328;8.720;2022-08-24T00:37:46;99852.59;;;26.11;32.34
14383;BME280;7275;50.328;8.720;2022-08-24T00:40:16;99850.75;;;26.11;32.36
14383;BME280;7275;50.328;8.720;2022-08-24T00:42:45;99849.88;;;26.11;32.42
14383;BME280;7275;50.328;8.720;2022-08-24T00:45:15;99847.88;;;26.13;32.46
14383;BME280;7275;50.328;8.720;2022-08-24T00:47:48;99847.88;;;26.13;32.35
14383;BME280;7275;50.328;8.720;2022-08-24T00:50:20;99849.88;;;26.11;32.43
14383;BME280;7275;50.328;8.720;2022-08-24T00:52:52;99844.63;;;26.09;32.64
14383;BME280;7275;50.328;8.720;2022-08-24T00:55:26;99848.31;;;26.08;32.55
14383;BME280;7275;50.328;8.720;2022-08-24T00:58:02;99845.03;;;26.05;32.86
14383;BME280;7275;50.328;8.720;2022-08-24T01:00:35;99842.47;;;26.03;32.57
14383;BME280;7275;50.328;8.720;2022-08-24T01:03:11;99844.47;;;26.01;32.86
14383;BME280;7275;50.328;8.720;2022-08-24T01:05:40;99840.34;;;25.97;32.75
14383;BME280;7275;50.328;8.720;2022-08-24T01:08:09;99844.53;;;25.92;32.89
14383;BME280;7275;50.328;8.720;2022-08-24T01:10:41;99844.97;;;25.87;32.98
14383;BME280;7275;50.328;8.720;2022-08-24T01:13:11;99842.88;;;25.81;33.04
14383;BME280;7275;50.328;8.720;2022-08-24T01:15:43;99840.78;;;25.75;33.15
14383;BME280;7275;50.328;8.720;2022-08-24T01:18:19;99841.22;;;25.71;33.19
14383;BME280;7275;50.328;8.720;2022-08-24T01:21:17;99851.94;;;25.63;33.34
14383;BME280;7275;50.328;8.720;2022-08-24T01:23:49;99863.22;;;25.58;33.54
14383;BME280;7275;50.328;8.720;2022-08-24T01:26:19;99859.97;;;25.55;33.50
14383;BME280;7275;50.328;8.720;2022-08-24T01:28:49;99857.00;;;25.48;33.62
14383;BME280;7275;50.328;8.720;2022-08-24T01:31:20;99857.59;;;25.42;33.84
14383;BME280;7275;50.328;8.720;2022-08-24T01:33:49;99855.28;;;25.37;33.70
14383;BME280;7275;50.328;8.720;2022-08-24T01:36:22;99856.72;;;25.32;33.64
14383;BME280;7275;50.328;8.720;2022-08-24T01:38:57;99861.72;;;25.27;33.87
14383;BME280;7275;50.328;8.720;2022-08-24T01:41:26;99863.16;;;25.21;33.83
14383;BME280;7275;50.328;8.720;2022-08-24T01:43:55;99859.06;;;25.17;34.14
14383;BME280;7275;50.328;8.720;2022-08-24T01:46:23;99861.31;;;25.12;34.46
14383;BME280;7275;50.328;8.720;2022-08-24T01:48:50;99867.88;;;25.10;34.34
14383;BME280;7275;50.328;8.720;2022-08-24T01:51:18;99872.44;;;25.09;34.11
14383;BME280;7275;50.328;8.720;2022-08-24T01:53:46;99864.63;;;25.06;34.57
14383;BME280;7275;50.328;8.720;2022-08-24T01:56:16;99874.72;;;25.04;34.51
14383;BME280;7275;50.328;8.720;2022-08-24T01:58:44;99871.59;;;24.99;34.77
14383;BME280;7275;50.328;8.720;2022-08-24T02:01:12;99871.03;;;24.96;34.52
14383;BME280;7275;50.328;8.720;2022-08-24T02:03:40;99875.72;;;24.94;34.60
14383;BME280;7275;50.328;8.720;2022-08-24T02:06:08;99879.72;;;24.90;34.78
14383;BME280;7275;50.328;8.720;2022-08-24T02:08:36;99872.75;;;24.87;34.75
14383;BME280;7275;50.328;8.720;2022-08-24T02:11:05;99877.59;;;24.84;34.68
14383;BME280;7275;50.328;8.720;2022-08-24T02:13:36;99877.88;;;24.81;35.13
14383;BME280;7275;50.328;8.720;2022-08-24T02:16:05;99874.59;;;24.77;35.25
14383;BME280;7275;50.328;8.720;2022-08-24T02:18:33;99872.06;;;24.76;35.24
14383;BME280;7275;50.328;8.720;2022-08-24T02:21:01;99874.03;;;24.74;35.28
14383;BME280;7275;50.328;8.720;2022-08-24T02:23:29;99877.84;;;24.71;35.30
14383;BME280;7275;50.328;8.720;2022-08-24T02:25:56;99879.84;;;24.69;35.24
14383;BME280;7275;50.328;8.720;2022-08-24T02:28:24;99886.22;;;24.68;35.32
14383;BME280;7275;50.328;8.720;2022-08-24T02:30:55;99886.38;;;24.67;35.37
14383;BME280;7275;50.328;8.720;2022-08-24T02:33:23;99882.00;;;24.66;35.53
14383;BME280;7275;50.328;8.720;2022-08-24T02:35:51;99883.84;;;24.65;35.64
14383;BME280;7275;50.328;8.720;2022-08-24T02:38:20;99874.16;;;24.63;35.74
14383;BME280;7275;50.328;8.720;2022-08-24T02:40:47;99881.53;;;24.60;35.72
14383;BME280;7275;50.328;8.720;2022-08-24T02:43:15;99880.97;;;24.57;35.90
14383;BME280;7275;50.328;8.720;2022-08-24T02:45:44;99894.06;;;24.52;36.17
14383;BME280;7275;50.328;8.720;2022-08-24T02:48:18;99893.50;;;24.48;36.19
14383;BME280;7275;50.328;8.720;2022-08-24T02:50:48;99895.59;;;24.45;35.87
14383;BME280;7275;50.328;8.720;2022-08-24T02:53:18;99894.16;;;24.41;36.12
14383;BME280;7275;50.328;8.720;2022-08-24T02:55:46;99900.03;;;24.36;36.36
14383;BME280;7275;50.328;8.720;2022-08-24T02:58:15;99905.13;;;24.30;36.19
14383;BME280;7275;50.328;8.720;2022-08-24T03:00:44;99899.28;;;24.25;36.42
14383;BME280;7275;50.328;8.720;2022-08-24T03:03:12;99898.84;;;24.20;36.28
14383;BME280;7275;50.328;8.720;2022-08-24T03:05:41;99894.56;;;24.17;36.43
14383;BME280;7275;50.328;8.720;2022-08-24T03:08:09;99894.97;;;24.13;36.52
14383;BME280;7275;50.328;8.720;2022-08-24T03:10:37;99907.78;;;24.11;36.82
14383;BME280;7275;50.328;8.720;2022-08-24T03:13:05;99903.34;;;24.10;36.87
14383;BME280;7275;50.328;8.720;2022-08-24T03:15:33;99901.91;;;24.06;36.74
14383;BME280;7275;50.328;8.720;2022-08-24T03:18:01;99906.59;;;24.04;36.76
14383;BME280;7275;50.328;8.720;2022-08-24T03:20:28;99899.59;;;24.01;37.14
14383;BME280;7275;50.328;8.720;2022-08-24T03:22:57;99900.59;;;24.00;37.18
14383;BME280;7275;50.328;8.720;2022-08-24T03:25:25;99899.72;;;24.00;37.26
14383;BME280;7275;50.328;8.720;2022-08-24T03:27:53;99893.47;;;23.99;36.95
14383;BME280;7275;50.328;8.720;2022-08-24T03:30:21;99893.63;;;23.98;37.36
14383;BME280;7275;50.328;8.720;2022-08-24T03:32:50;99891.47;;;24.01;37.26
14383;BME280;7275;50.328;8.720;2022-08-24T03:35:17;99900.44;;;24.02;37.30
14383;BME280;7275;50.328;8.720;2022-08-24T03:37:47;99895.19;;;24.00;37.44
14383;BME280;7275;50.328;8.720;2022-08-24T03:40:16;99897.03;;;24.00;37.52
14383;BME280;7275;50.328;8.720;2022-08-24T03:42:50;99892.63;;;23.99;37.14
14383;BME280;7275;50.328;8.720;2022-08-24T03:45:18;99886.38;;;23.98;37.36
14383;BME280;7275;50.328;8.720;2022-08-24T03:47:46;99886.38;;;23.98;37.32
14383;BME280;7275;50.328;8.720;2022-08-24T03:50:14;99887.34;;;23.97;37.64
14383;BME280;7275;50.328;8.720;2022-08-24T03:52:41;99881.22;;;23.95;37.80
14383;BME280;7275;50.328;8.720;2022-08-24T03:55:09;99887.78;;;23.93;37.80
14383;BME280;7275;50.328;8.720;2022-08-24T03:57:39;99887.19;;;23.89;37.70
14383;BME280;7275;50.328;8.720;2022-08-24T04:00:09;99886.47;;;23.87;37.96
14383;BME280;7275;50.328;8.720;2022-08-24T04:02:37;99895.56;;;23.86;38.15
14383;BME280;7275;50.328;8.720;2022-08-24T04:05:05;99893.00;;;23.84;38.11
14383;BME280;7275;50.328;8.720;2022-08-24T04:07:33;99891.28;;;23.83;37.76
14383;BME280;7275;50.328;8.720;2022-08-24T04:10:00;99890.72;;;23.80;37.74
14383;BME280;7275;50.328;8.720;2022-08-24T04:12:28;99897.25;;;23.77;37.88
14383;BME280;7275;50.328;8.720;2022-08-24T04:14:57;99898.63;;;23.72;38.03
14383;BME280;7275;50.328;8.720;2022-08-24T04:17:25;99894.38;;;23.69;38.20
14383;BME280;7275;50.328;8.720;2022-08-24T04:19:52;99894.63;;;23.66;38.50
14383;BME280;7275;50.328;8.720;2022-08-24T04:22:28;99892.22;;;23.63;38.56
14383;BME280;7275;50.328;8.720;2022-08-24T04:24:56;99888.66;;;23.63;38.60
14383;BME280;7275;50.328;8.720;2022-08-24T04:27:24;99892.22;;;23.63;38.67
14383;BME280;7275;50.328;8.720;2022-08-24T04:29:52;99897.47;;;23.65;38.35
14383;BME280;7275;50.328;8.720;2022-08-24T04:32:20;99892.94;;;23.65;38.39
14383;BME280;7275;50.328;8.720;2022-08-24T04:34:48;99894.47;;;23.68;38.70
14383;BME280;7275;50.328;8.720;2022-08-24T04:37:16;99894.47;;;23.68;38.33
14383;BME280;7275;50.328;8.720;2022-08-24T04:39:51;99893.66;;;23.67;38.63
14383;BME280;7275;50.328;8.720;2022-08-24T04:42:19;99895.47;;;23.67;38.43
14383;BME280;7275;50.328;8.720;2022-08-24T04:44:47;99899.16;;;23.66;38.63
14383;BME280;7275;50.328;8.720;2022-08-24T04:47:15;99896.75;;;23.63;38.98
14383;BME280;7275;50.328;8.720;2022-08-24T04:49:44;99896.75;;;23.63;39.26
14383;BME280;7275;50.328;8.720;2022-08-24T04:52:12;99893.19;;;23.62;38.90
14383;BME280;7275;50.328;8.720;2022-08-24T04:54:40;99902.16;;;23.63;39.33
14383;BME280;7275;50.328;8.720;2022-08-24T04:57:07;99900.16;;;23.65;38.94
14383;BME280;7275;50.328;8.720;2022-08-24T04:59:37;99904.44;;;23.67;39.20
14383;BME280;7275;50.328;8.720;2022-08-24T05:02:06;99907.72;;;23.71;39.12
14383;BME280;7275;50.328;8.720;2022-08-24T05:04:33;99910.13;;;23.74;39.13
14383;BME280;7275;50.328;8.720;2022-08-24T05:07:04;99912.56;;;23.77;39.22
14383;BME280;7275;50.328;8.720;2022-08-24T05:09:32;99915.84;;;23.80;39.48
14383;BME280;7275;50.328;8.720;2022-08-24T05:12:00;99919.88;;;23.86;39.17
14383;BME280;7275;50.328;8.720;2022-08-24T05:14:27;99920.19;;;23.93;39.17
14383;BME280;7275;50.328;8.720;2022-08-24T05:16:55;99922.34;;;23.99;39.42
14383;BME280;7275;50.328;8.720;2022-08-24T05:19:23;99926.22;;;24.06;39.74
14383;BME280;7275;50.328;8.720;2022-08-24T05:21:50;99923.84;;;24.12;39.87
14383;BME280;7275;50.328;8.720;2022-08-24T05:24:20;99925.56;;;24.23;39.87
14383;BME280;7275;50.328;8.720;2022-08-24T05:26:47;99926.34;;;24.34;39.67
14383;BME280;7275;50.328;8.720;2022-08-24T05:29:18;99919.09;;;24.44;39.36
14383;BME280;7275;50.328;8.720;2022-08-24T05:31:46;99919.09;;;24.54;39.60
14383;BME280;7275;50.328;8.720;2022-08-24T05:34:14;99919.84;;;24.66;39.31
14383;BME280;7275;50.328;8.720;2022-08-24T05:36:41;99921.44;;;24.78;39.71
14383;BME280;7275;50.328;8.720;2022-08-24T05:39:12;99920.16;;;24.91;39.60
14383;BME280;7275;50.328;8.720;2022-08-24T05:41:43;99928.84;;;25.04;39.23
14383;BME280;7275;50.328;8.720;2022-08-24T05:44:12;99938.50;;;25.16;39.52
14383;BME280;7275;50.328;8.720;2022-08-24T05:46:39;99931.81;;;25.30;39.64
14383;BME280;7275;50.328;8.720;2022-08-24T05:49:08;99930.38;;;25.45;39.42
14383;BME280;7275;50.328;8.720;2022-08-24T05:51:37;99932.66;;;25.59;39.30
14383;BME280;7275;50.328;8.720;2022-08-24T05:54:05;99929.63;;;25.72;39.22
14383;BME280;7275;50.328;8.720;2022-08-24T05:56:33;99935.53;;;25.85;39.16
14383;BME280;7275;50.328;8.720;2022-08-24T05:59:02;99935.06;;;25.99;39.06
14383;BME280;7275;50.328;8.720;2022-08-24T06:01:30;99939.16;;;26.12;38.81
14383;BME280;7275;50.328;8.720;2022-08-24T06:03:58;99930.53;;;26.27;38.56
14383;BME280;7275;50.328;8.720;2022-08-24T06:06:26;99940.88;;;26.41;38.45
14383;BME280;7275;50.328;8.720;2022-08-24T06:08:56;99940.38;;;26.55;38.21
14383;BME280;7275;50.328;8.720;2022-08-24T06:11:26;99941.84;;;26.67;38.05
14383;BME280;7275;50.328;8.720;2022-08-24T06:13:57;99941.50;;;26.79;38.00
14383;BME280;7275;50.328;8.720;2022-08-24T06:16:27;99934.69;;;26.93;37.59
14383;BME280;7275;50.328;8.720;2022-08-24T06:18:55;99935.47;;;27.03;37.68
14383;BME280;7275;50.328;8.720;2022-08-24T06:21:25;99929.94;;;27.13;37.31
14383;BME280;7275;50.328;8.720;2022-08-24T06:23:54;99927.97;;;27.23;37.37
14383;BME280;7275;50.328;8.720;2022-08-24T06:26:22;99928.03;;;27.31;37.49
14383;BME280;7275;50.328;8.720;2022-08-24T06:29:07;99930.31;;;27.35;37.14
14383;BME280;7275;50.328;8.720;2022-08-24T06:31:39;99939.38;;;27.44;37.44
14383;BME280;7275;50.328;8.720;2022-08-24T06:34:08;99937.59;;;27.52;36.98
14383;BME280;7275;50.328;8.720;2022-08-24T06:36:36;99937.47;;;27.62;37.32
14383;BME280;7275;50.328;8.720;2022-08-24T06:39:05;99931.09;;;27.71;37.00
14383;BME280;7275;50.328;8.720;2022-08-24T06:41:35;99937.44;;;27.80;37.00
14383;BME280;7275;50.328;8.720;2022-08-24T06:44:03;99937.66;;;27.86;36.85
14383;BME280;7275;50.328;8.720;2022-08-24T06:46:31;99941.56;;;27.92;36.72
14383;BME280;7275;50.328;8.720;2022-08-24T06:49:00;99936.53;;;27.97;36.95
14383;BME280;7275;50.328;8.720;2022-08-24T06:51:28;99943.88;;;28.04;36.63
14383;BME280;7275;50.328;8.720;2022-08-24T06:53:57;99939.16;;;28.14;36.57
14383;BME280;7275;50.328;8.720;2022-08-24T06:56:25;99937.50;;;28.21;36.21
14383;BME280;7275;50.328;8.720;2022-08-24T06:58:52;99945.88;;;28.28;36.28
14383;BME280;7275;50.328;8.720;2022-08-24T07:01:23;99939.09;;;28.32;35.89
14383;BME280;7275;50.328;8.720;2022-08-24T07:03:51;99942.84;;;28.39;36.33
14383;BME280;7275;50.328;8.720;2022-08-24T07:06:20;99937.09;;;28.50;36.30
14383;BME280;7275;50.328;8.720;2022-08-24T07:08:49;99942.28;;;28.61;35.81
14383;BME280;7275;50.328;8.720;2022-08-24T07:11:17;99941.28;;;28.70;35.83
14383;BME280;7275;50.328;8.720;2022-08-24T07:13:47;99941.81;;;28.82;36.03
14383;BME280;7275;50.328;8.720;2022-08-24T07:16:16;99945.06;;;28.93;35.95
14383;BME280;7275;50.328;8.720;2022-08-24T07:18:43;99944.56;;;29.06;35.76
14383;BME280;7275;50.328;8.720;2022-08-24T07:21:16;99947.84;;;29.17;35.50
14383;BME280;7275;50.328;8.720;2022-08-24T07:23:46;99950.22;;;29.29;35.32
14383;BME280;7275;50.328;8.720;2022-08-24T07:26:15;99947.16;;;29.40;35.33
14383;BME280;7275;50.328;8.720;2022-08-24T07:28:47;99953.63;;;29.47;34.79
14383;BME280;7275;50.328;8.720;2022-08-24T07:31:15;99947.47;;;29.53;34.92
14383;BME280;7275;50.328;8.720;2022-08-24T07:33:42;99953.09;;;29.59;35.17
14383;BME280;7275;50.328;8.720;2022-08-24T07:36:10;99946.44;;;29.70;35.21
14383;BME280;7275;50.328;8.720;2022-08-24T07:38:49;99949.69;;;29.81;34.61
14383;BME280;7275;50.328;8.720;2022-08-24T07:41:18;99946.09;;;29.89;34.39
14383;BME280;7275;50.328;8.720;2022-08-24T07:44:06;99950.34;;;29.99;34.65
14383;BME280;7275;50.328;8.720;2022-08-24T07:46:34;99944.47;;;30.11;34.49
14383;BME280;7275;50.328;8.720;2022-08-24T07:49:02;99949.06;;;30.18;34.03
14383;BME280;7275;50.328;8.720;2022-08-24T07:51:45;99956.19;;;30.27;34.26
14383;BME280;7275;50.328;8.720;2022-08-24T07:54:15;99952.78;;;30.33;34.03
14383;BME280;7275;50.328;8.720;2022-08-24T07:56:42;99956.16;;;30.43;33.83
14383;BME280;7275;50.328;8.720;2022-08-24T07:59:10;99953.03;;;30.54;34.25
14383;BME280;7275;50.328;8.720;2022-08-24T08:01:39;99957.06;;;30.66;34.04
14383;BME280;7275;50.328;8.720;2022-08-24T08:04:07;99963.16;;;30.76;33.67
14383;BME280;7275;50.328;8.720;2022-08-24T08:06:35;99956.63;;;30.86;33.57
14383;BME280;7275;50.328;8.720;2022-08-24T08:09:04;99958.09;;;30.96;33.32
14383;BME280;7275;50.328;8.720;2022-08-24T08:11:33;99968.81;;;31.06;33.24
14383;BME280;7275;50.328;8.720;2022-08-24T08:14:00;99958.28;;;31.17;33.07
14383;BME280;7275;50.328;8.720;2022-08-24T08:16:28;99965.22;;;31.28;32.91
14383;BME280;7275;50.328;8.720;2022-08-24T08:18:55;99968.53;;;31.38;33.08
14383;BME280;7275;50.328;8.720;2022-08-24T08:21:40;99962.47;;;31.50;32.67
14383;BME280;7275;50.328;8.720;2022-08-24T08:24:25;99964.59;;;31.63;32.88
14383;BME280;7275;50.328;8.720;2022-08-24T08:26:54;99970.94;;;31.78;32.53
14383;BME280;7275;50.328;8.720;2022-08-24T08:29:23;99970.09;;;31.92;32.45
14383;BME280;7275;50.328;8.720;2022-08-24T08:31:51;99963.66;;;32.08;32.26
14383;BME280;7275;50.328;8.720;2022-08-24T08:34:19;99963.16;;;32.19;31.85
14383;BME280;7275;50.328;8.720;2022-08-24T08:36:47;99968.63;;;32.33;31.86
14383;BME280;7275;50.328;8.720;2022-08-24T08:39:16;99969.97;;;32.52;31.51
14383;BME280;7275;50.328;8.720;2022-08-24T08:42:06;99967.88;;;32.69;31.61
14383;BME280;7275;50.328;8.720;2022-08-24T08:44:54;99962.22;;;32.91;31.54
14383;BME280;7275;50.328;8.720;2022-08-24T08:47:55;99969.91;;;33.17;31.26
14383;BME280;7275;50.328;8.720;2022-08-24T08:50:30;99968.94;;;33.46;31.18
14383;BME280;7275;50.328;8.720;2022-08-24T08:53:18;99959.69;;;33.74;30.81
14383;BME280;7275;50.328;8.720;2022-08-24T08:55:59;99956.81;;;34.10;30.48
14383;BME280;7275;50.328;8.720;2022-08-24T08:58:47;99966.16;;;34.50;30.55
14383;BME280;7275;50.328;8.720;2022-08-24T09:01:31;99966.56;;;35.07;29.97
14383;BME280;7275;50.328;8.720;2022-08-24T09:07:29;99956.59;;;36.50;28.82
14383;BME280;7275;50.328;8.720;2022-08-24T09:10:16;99951.28;;;37.37;28.16
14383;BME280;7275;50.328;8.720;2022-08-24T09:12:56;99949.66;;;38.22;27.21
14383;BME280;7275;50.328;8.720;2022-08-24T09:15:46;99951.84;;;39.04;26.12
14383;BME280;7275;50.328;8.720;2022-08-24T09:18:36;99947.72;;;39.77;25.46
14383;BME280;7275;50.328;8.720;2022-08-24T09:21:29;99944.94;;;40.35;25.04
14383;BME280;7275;50.328;8.720;2022-08-24T09:24:05;99955.25;;;40.63;24.45
14383;BME280;7275;50.328;8.720;2022-08-24T09:26:41;99948.94;;;40.28;23.88
14383;BME280;7275;50.328;8.720;2022-08-24T09:29:16;99958.94;;;39.82;23.98
14383;BME280;7275;50.328;8.720;2022-08-24T09:31:55;99960.38;;;39.32;23.63
14383;BME280;7275;50.328;8.720;2022-08-24T09:34:40;99954.91;;;38.84;24.16
14383;BME280;7275;50.328;8.720;2022-08-24T09:37:29;99953.19;;;38.47;24.45
14383;BME280;7275;50.328;8.720;2022-08-24T09:40:00;99952.44;;;38.22;24.47
14383;BME280;7275;50.328;8.720;2022-08-24T09:42:45;99955.22;;;37.97;24.98
14383;BME280;7275;50.328;8.720;2022-08-24T09:48:33;99948.75;;;37.60;24.71
14383;BME280;7275;50.328;8.720;2022-08-24T09:51:23;99949.72;;;37.48;25.15
14383;BME280;7275;50.328;8.720;2022-08-24T09:57:23;99939.00;;;37.58;25.33
14383;BME280;7275;50.328;8.720;2022-08-24T10:00:18;99941.81;;;37.76;24.68
14383;BME280;7275;50.328;8.720;2022-08-24T10:03:04;99946.19;;;37.90;24.50
14383;BME280;7275;50.328;8.720;2022-08-24T10:05:51;99944.97;;;38.04;24.26
14383;BME280;7275;50.328;8.720;2022-08-24T10:08:34;99940.34;;;38.16;24.07
14383;BME280;7275;50.328;8.720;2022-08-24T10:11:10;99942.41;;;38.27;23.72
14383;BME280;7275;50.328;8.720;2022-08-24T10:13:46;99941.25;;;38.35;23.63
14383;BME280;7275;50.328;8.720;2022-08-24T10:16:30;99943.56;;;38.38;23.29
14383;BME280;7275;50.328;8.720;2022-08-24T10:19:10;99931.66;;;38.37;22.98
14383;BME280;7275;50.328;8.720;2022-08-24T10:21:52;99937.00;;;38.32;22.84
14383;BME280;7275;50.328;8.720;2022-08-24T10:27:20;99932.81;;;38.30;23.33
14383;BME280;7275;50.328;8.720;2022-08-24T10:30:13;99926.13;;;38.37;23.57
14383;BME280;7275;50.328;8.720;2022-08-24T10:33:02;99913.97;;;38.57;23.45
14383;BME280;7275;50.328;8.720;2022-08-24T10:35:34;99921.28;;;38.69;23.21
14383;BME280;7275;50.328;8.720;2022-08-24T10:38:22;99908.44;;;38.75;23.00
14383;BME280;7275;50.328;8.720;2022-08-24T10:41:28;99914.63;;;38.88;22.92
14383;BME280;7275;50.328;8.720;2022-08-24T10:44:18;99908.88;;;39.01;22.80
14383;BME280;7275;50.328;8.720;2022-08-24T10:46:57;99912.44;;;39.20;22.68
14383;BME280;7275;50.328;8.720;2022-08-24T10:49:54;99910.81;;;39.42;22.70
14383;BME280;7275;50.328;8.720;2022-08-24T10:52:51;99909.88;;;39.60;22.39
14383;BME280;7275;50.328;8.720;2022-08-24T10:55:27;99907.25;;;39.76;21.95
14383;BME280;7275;50.328;8.720;2022-08-24T10:58:09;99903.75;;;39.92;21.83
14383;BME280;7275;50.328;8.720;2022-08-24T11:00:39;99906.06;;;40.07;21.82
14383;BME280;7275;50.328;8.720;2022-08-24T11:03:11;99908.22;;;40.17;21.21
14383;BME280;7275;50.328;8.720;2022-08-24T11:05:41;99910.84;;;40.23;21.27
14383;BME280;7275;50.328;8.720;2022-08-24T11:08:18;99917.00;;;40.25;20.78
14383;BME280;7275;50.328;8.720;2022-08-24T11:11:03;99904.56;;;40.28;20.85
14383;BME280;7275;50.328;8.720;2022-08-24T11:13:33;99908.41;;;40.38;20.62
14383;BME280;7275;50.328;8.720;2022-08-24T11:16:03;99902.25;;;40.48;20.41
14383;BME280;7275;50.328;8.720;2022-08-24T11:18:45;99901.50;;;40.52;19.95
14383;BME280;7275;50.328;8.720;2022-08-24T11:21:30;99901.13;;;40.60;19.76
14383;BME280;7275;50.328;8.720;2022-08-24T11:24:01;99897.63;;;40.65;20.15
14383;BME280;7275;50.328;8.720;2022-08-24T11:26:30;99896.75;;;40.64;20.27
14383;BME280;7275;50.328;8.720;2022-08-24T11:29:03;99897.72;;;40.70;20.20
14383;BME280;7275;50.328;8.720;2022-08-24T11:31:33;99889.59;;;40.80;19.43
14383;BME280;7275;50.328;8.720;2022-08-24T11:34:04;99883.81;;;40.82;19.12
14383;BME280;7275;50.328;8.720;2022-08-24T11:36:35;99882.81;;;40.88;19.59
14383;BME280;7275;50.328;8.720;2022-08-24T11:39:13;99882.66;;;40.94;19.77
14383;BME280;7275;50.328;8.720;2022-08-24T11:41:55;99884.09;;;40.97;19.06
14383;BME280;7275;50.328;8.720;2022-08-24T11:44:34;99886.38;;;41.00;19.55
14383;BME280;7275;50.328;8.720;2022-08-24T11:47:12;99884.78;;;41.04;19.12
14383;BME280;7275;50.328;8.720;2022-08-24T11:49:51;99882.94;;;41.09;19.33
14383;BME280;7275;50.328;8.720;2022-08-24T11:52:29;99878.31;;;41.15;19.23
14383;BME280;7275;50.328;8.720;2022-08-24T11:55:03;99872.28;;;41.18;18.93
14383;BME280;7275;50.328;8.720;2022-08-24T11:57:37;99870.00;;;41.15;18.69
14383;BME280;7275;50.328;8.720;2022-08-24T12:00:15;99874.94;;;41.13;18.64
14383;BME280;7275;50.328;8.720;2022-08-24T12:02:52;99877.56;;;41.03;18.78
14383;BME280;7275;50.328;8.720;2022-08-24T12:05:27;99871.75;;;41.04;18.69
14383;BME280;7275;50.328;8.720;2022-08-24T12:08:04;99863.84;;;41.13;18.99
14383;BME280;7275;50.328;8.720;2022-08-24T12:10:41;99854.91;;;41.22;19.09
14383;BME280;7275;50.328;8.720;2022-08-24T12:13:24;99848.66;;;41.32;18.70
14383;BME280;7275;50.328;8.720;2022-08-24T12:16:04;99849.66;;;41.42;18.42
14383;BME280;7275;50.328;8.720;2022-08-24T12:18:45;99851.00;;;41.57;18.59
14383;BME280;7275;50.328;8.720;2022-08-24T12:21:18;99842.59;;;41.68;18.01
14383;BME280;7275;50.328;8.720;2022-08-24T12:23:49;99851.66;;;41.80;18.57
14383;BME280;7275;50.328;8.720;2022-08-24T12:26:21;99841.25;;;41.92;18.19
14383;BME280;7275;50.328;8.720;2022-08-24T12:28:55;99844.88;;;42.09;17.86
14383;BME280;7275;50.328;8.720;2022-08-24T12:31:35;99846.28;;;42.12;18.21
14383;BME280;7275;50.328;8.720;2022-08-24T12:34:09;99845.19;;;42.13;17.79
14383;BME280;7275;50.328;8.720;2022-08-24T12:36:43;99840.47;;;42.13;17.70
14383;BME280;7275;50.328;8.720;2022-08-24T12:39:19;99839.13;;;42.16;18.20
14383;BME280;7275;50.328;8.720;2022-08-24T12:41:56;99843.50;;;42.12;17.96
14383;BME280;7275;50.328;8.720;2022-08-24T12:44:37;99835.00;;;42.02;17.72
14383;BME280;7275;50.328;8.720;2022-08-24T12:47:07;99838.22;;;41.94;17.99
14383;BME280;7275;50.328;8.720;2022-08-24T12:49:47;99830.91;;;41.88;17.55
14383;BME280;7275;50.328;8.720;2022-08-24T12:52:50;99833.28;;;41.79;18.10
14383;BME280;7275;50.328;8.720;2022-08-24T12:55:48;99826.88;;;41.79;18.16
14383;BME280;7275;50.328;8.720;2022-08-24T12:58:34;99821.50;;;41.89;17.61
14383;BME280;7275;50.328;8.720;2022-08-24T13:01:23;99824.25;;;42.05;17.86
14383;BME280;7275;50.328;8.720;2022-08-24T13:04:05;99826.63;;;42.18;17.79
14383;BME280;7275;50.328;8.720;2022-08-24T13:06:39;99824.50;;;42.26;17.82
14383;BME280;7275;50.328;8.720;2022-08-24T13:09:14;99820.28;;;42.23;17.66
14383;BME280;7275;50.328;8.720;2022-08-24T13:11:43;99828.22;;;42.14;17.65
14383;BME280;7275;50.328;8.720;2022-08-24T13:14:18;99819.84;;;42.09;17.17
14383;BME280;7275;50.328;8.720;2022-08-24T13:17:05;99824.72;;;42.02;17.16
14383;BME280;7275;50.328;8.720;2022-08-24T13:19:36;99820.13;;;41.91;17.26
14383;BME280;7275;50.328;8.720;2022-08-24T13:22:45;99816.03;;;41.77;16.97
14383;BME280;7275;50.328;8.720;2022-08-24T13:25:22;99810.34;;;41.67;17.50
14383;BME280;7275;50.328;8.720;2022-08-24T13:28:05;99816.91;;;41.61;17.01
14383;BME280;7275;50.328;8.720;2022-08-24T13:31:02;99798.16;;;41.52;17.14
14383;BME280;7275;50.328;8.720;2022-08-24T13:33:40;99804.47;;;41.47;17.11
14383;BME280;7275;50.328;8.720;2022-08-24T13:42:27;99794.31;;;41.36;17.78
14383;BME280;7275;50.328;8.720;2022-08-24T13:45:13;99788.06;;;41.46;17.71
14383;BME280;7275;50.328;8.720;2022-08-24T13:47:53;99793.44;;;41.52;17.33
14383;BME280;7275;50.328;8.720;2022-08-24T13:50:38;99787.63;;;41.54;17.35
14383;BME280;7275;50.328;8.720;2022-08-24T13:53:31;99787.88;;;41.52;17.58
14383;BME280;7275;50.328;8.720;2022-08-24T13:56:27;99787.81;;;41.47;17.32
14383;BME280;7275;50.328;8.720;2022-08-24T13:59:05;99780.56;;;41.46;17.11
14383;BME280;7275;50.328;8.720;2022-08-24T14:01:37;99783.66;;;41.50;17.71